sensor_id;sensor_type;location;lat;lon;timestamp;P1;P2;P0
59546;PMS5003;45368;55.002;-1.592;2022-11-15T00:00:47;45;37;
59546;PMS5003;45368;55.002;-1.592;2022-11-15T00:03:16;40;35;
59546;PMS5003;45368;55.002;-1.592;2022-11-15T00:05:44;45;38;
59546;PMS5003;45368;55.002;-1.592;2022-11-15T00:08:12;42;39;
59546;PMS5003;45368;55.002;-1.592;2022-11-15T00:10:39;46;41;
59546;PMS5003;45368;55.002;-1.592;2022-11-15T00:13:07;45;39;
59546;PMS5003;45368;55.002;-1.592;2022-11-15T00:15:35;45;35;
59546;PMS5003;45368;55.002;-1.592;2022-11-15T00:18:02;36;31;
59546;PMS5003;45368;55.002;-1.592;2022-11-15T00:20:30;31;28;
59546;PMS5003;45368;55.002;-1.592;2022-11-15T00:22:57;39;33;
59546;PMS5003;45368;55.002;-1.592;2022-11-15T00:25:25;38;34;
59546;PMS5003;45368;55.002;-1.592;2022-11-15T00:27:54;35;27;
59546;PMS5003;45368;55.002;-1.592;2022-11-15T00:30:22;31;29;
59546;PMS5003;45368;55.002;-1.592;2022-11-15T00:32:50;38;34;
59546;PMS5003;45368;55.002;-1.592;2022-11-15T00:35:18;42;35;
59546;PMS5003;45368;55.002;-1.592;2022-11-15T00:37:46;41;34;
59546;PMS5003;45368;55.002;-1.592;2022-11-15T00:40:14;45;35;
59546;PMS5003;45368;55.002;-1.592;2022-11-15T00:42:41;32;29;
59546;PMS5003;45368;55.002;-1.592;2022-11-15T00:45:09;45;33;
59546;PMS5003;45368;55.002;-1.592;2022-11-15T00:47:36;39;33;
59546;PMS5003;45368;55.002;-1.592;2022-11-15T00:50:04;37;34;
59546;PMS5003;45368;55.002;-1.592;2022-11-15T00:52:32;38;33;
59546;PMS5003;45368;55.002;-1.592;2022-11-15T00:54:59;35;31;
59546;PMS5003;45368;55.002;-1.592;2022-11-15T00:57:26;35;31;
59546;PMS5003;45368;55.002;-1.592;2022-11-15T00:59:53;31;28;
59546;PMS5003;45368;55.002;-1.592;2022-11-15T01:02:21;29;28;
59546;PMS5003;45368;55.002;-1.592;2022-11-15T01:04:48;34;32;
59546;PMS5003;45368;55.002;-1.592;2022-11-15T01:07:15;31;29;
59546;PMS5003;45368;55.002;-1.592;2022-11-15T01:09:42;26;26;
59546;PMS5003;45368;55.002;-1.592;2022-11-15T01:12:10;37;34;
59546;PMS5003;45368;55.002;-1.592;2022-11-15T01:14:37;37;30;
59546;PMS5003;45368;55.002;-1.592;2022-11-15T01:17:05;38;35;
59546;PMS5003;45368;55.002;-1.592;2022-11-15T01:19:32;32;30;
59546;PMS5003;45368;55.002;-1.592;2022-11-15T01:21:58;32;28;
59546;PMS5003;45368;55.002;-1.592;2022-11-15T01:24:25;36;33;
59546;PMS5003;45368;55.002;-1.592;2022-11-15T01:26:53;35;30;
59546;PMS5003;45368;55.002;-1.592;2022-11-15T01:29:20;31;28;
59546;PMS5003;45368;55.002;-1.592;2022-11-15T01:31:47;35;32;
59546;PMS5003;45368;55.002;-1.592;2022-11-15T01:34:14;32;28;
59546;PMS5003;45368;55.002;-1.592;2022-11-15T01:36:42;39;33;
59546;PMS5003;45368;55.002;-1.592;2022-11-15T01:39:09;38;29;
59546;PMS5003;45368;55.002;-1.592;2022-11-15T01:41:38;37;33;
59546;PMS5003;45368;55.002;-1.592;2022-11-15T01:44:39;38;35;
59546;PMS5003;45368;55.002;-1.592;2022-11-15T01:47:09;34;31;
59546;PMS5003;45368;55.002;-1.592;2022-11-15T01:49:41;38;35;
59546;PMS5003;45368;55.002;-1.592;2022-11-15T01:52:17;38;33;
59546;PMS5003;45368;55.002;-1.592;2022-11-15T01:54:47;31;31;
59546;PMS5003;45368;55.002;-1.592;2022-11-15T01:57:20;44;39;
59546;PMS5003;45368;55.002;-1.592;2022-11-15T01:59:47;37;35;
59546;PMS5003;45368;55.002;-1.592;2022-11-15T02:02:14;40;35;
59546;PMS5003;45368;55.002;-1.592;2022-11-15T02:04:43;38;33;
59546;PMS5003;45368;55.002;-1.592;2022-11-15T02:07:13;40;37;
59546;PMS5003;45368;55.002;-1.592;2022-11-15T02:09:43;39;36;
59546;PMS5003;45368;55.002;-1.592;2022-11-15T02:12:12;36;31;
59546;PMS5003;45368;55.002;-1.592;2022-11-15T02:14:42;42;38;
59546;PMS5003;45368;55.002;-1.592;2022-11-15T02:17:16;36;32;
59546;PMS5003;45368;55.002;-1.592;2022-11-15T02:20:05;35;33;
59546;PMS5003;45368;55.002;-1.592;2022-11-15T02:23:01;35;34;
59546;PMS5003;45368;55.002;-1.592;2022-11-15T02:25:49;40;37;
59546;PMS5003;45368;55.002;-1.592;2022-11-15T02:28:44;35;31;
59546;PMS5003;45368;55.002;-1.592;2022-11-15T02:31:24;50;42;
59546;PMS5003;45368;55.002;-1.592;2022-11-15T02:34:00;38;35;
59546;PMS5003;45368;55.002;-1.592;2022-11-15T02:36:36;33;30;
59546;PMS5003;45368;55.002;-1.592;2022-11-15T02:39:11;42;38;
59546;PMS5003;45368;55.002;-1.592;2022-11-15T02:41:46;36;33;
59546;PMS5003;45368;55.002;-1.592;2022-11-15T02:44:20;38;34;
59546;PMS5003;45368;55.002;-1.592;2022-11-15T02:46:52;32;31;
59546;PMS5003;45368;55.002;-1.592;2022-11-15T02:49:24;34;29;
59546;PMS5003;45368;55.002;-1.592;2022-11-15T02:51:54;39;35;
59546;PMS5003;45368;55.002;-1.592;2022-11-15T02:54:23;40;37;
59546;PMS5003;45368;55.002;-1.592;2022-11-15T02:57:07;33;32;
59546;PMS5003;45368;55.002;-1.592;2022-11-15T02:59:48;33;29;
59546;PMS5003;45368;55.002;-1.592;2022-11-15T03:02:37;30;27;
59546;PMS5003;45368;55.002;-1.592;2022-11-15T03:05:17;36;34;
59546;PMS5003;45368;55.002;-1.592;2022-11-15T03:07:54;39;35;
59546;PMS5003;45368;55.002;-1.592;2022-11-15T03:10:30;40;33;
59546;PMS5003;45368;55.002;-1.592;2022-11-15T03:13:21;30;25;
59546;PMS5003;45368;55.002;-1.592;2022-11-15T03:15:55;33;29;
59546;PMS5003;45368;55.002;-1.592;2022-11-15T03:18:30;32;30;
59546;PMS5003;45368;55.002;-1.592;2022-11-15T03:21:00;31;31;
59546;PMS5003;45368;55.002;-1.592;2022-11-15T03:23:31;30;30;
59546;PMS5003;45368;55.002;-1.592;2022-11-15T03:26:01;37;34;
59546;PMS5003;45368;55.002;-1.592;2022-11-15T03:28:32;32;28;
59546;PMS5003;45368;55.002;-1.592;2022-11-15T03:31:03;29;27;
59546;PMS5003;45368;55.002;-1.592;2022-11-15T03:33:31;35;32;
59546;PMS5003;45368;55.002;-1.592;2022-11-15T03:35:58;30;25;
59546;PMS5003;45368;55.002;-1.592;2022-11-15T03:38:26;33;28;
59546;PMS5003;45368;55.002;-1.592;2022-11-15T03:40:58;34;27;
59546;PMS5003;45368;55.002;-1.592;2022-11-15T03:43:30;31;28;
59546;PMS5003;45368;55.002;-1.592;2022-11-15T03:46:05;32;30;
59546;PMS5003;45368;55.002;-1.592;2022-11-15T03:48:39;33;29;
59546;PMS5003;45368;55.002;-1.592;2022-11-15T03:51:12;31;28;
59546;PMS5003;45368;55.002;-1.592;2022-11-15T03:53:40;29;27;
59546;PMS5003;45368;55.002;-1.592;2022-11-15T03:56:07;24;22;
59546;PMS5003;45368;55.002;-1.592;2022-11-15T03:58:35;31;29;
59546;PMS5003;45368;55.002;-1.592;2022-11-15T04:01:02;31;27;
59546;PMS5003;45368;55.002;-1.592;2022-11-15T04:03:29;35;34;
59546;PMS5003;45368;55.002;-1.592;2022-11-15T04:05:57;32;28;
59546;PMS5003;45368;55.002;-1.592;2022-11-15T04:08:24;26;23;
59546;PMS5003;45368;55.002;-1.592;2022-11-15T04:10:52;26;24;
59546;PMS5003;45368;55.002;-1.592;2022-11-15T04:13:19;28;25;
59546;PMS5003;45368;55.002;-1.592;2022-11-15T04:15:46;33;29;
59546;PMS5003;45368;55.002;-1.592;2022-11-15T04:18:13;29;26;
59546;PMS5003;45368;55.002;-1.592;2022-11-15T04:20:40;30;27;
59546;PMS5003;45368;55.002;-1.592;2022-11-15T04:23:09;29;25;
59546;PMS5003;45368;55.002;-1.592;2022-11-15T04:25:37;33;30;
59546;PMS5003;45368;55.002;-1.592;2022-11-15T04:28:05;28;26;
59546;PMS5003;45368;55.002;-1.592;2022-11-15T04:30:32;29;27;
59546;PMS5003;45368;55.002;-1.592;2022-11-15T04:32:59;28;24;
59546;PMS5003;45368;55.002;-1.592;2022-11-15T04:35:26;31;28;
59546;PMS5003;45368;55.002;-1.592;2022-11-15T04:37:54;37;34;
59546;PMS5003;45368;55.002;-1.592;2022-11-15T04:40:22;29;27;
59546;PMS5003;45368;55.002;-1.592;2022-11-15T04:42:50;29;27;
59546;PMS5003;45368;55.002;-1.592;2022-11-15T04:45:17;37;33;
59546;PMS5003;45368;55.002;-1.592;2022-11-15T04:47:45;35;34;
59546;PMS5003;45368;55.002;-1.592;2022-11-15T04:50:14;34;30;
59546;PMS5003;45368;55.002;-1.592;2022-11-15T04:52:42;37;30;
59546;PMS5003;45368;55.002;-1.592;2022-11-15T04:55:16;38;30;
59546;PMS5003;45368;55.002;-1.592;2022-11-15T04:57:43;30;30;
59546;PMS5003;45368;55.002;-1.592;2022-11-15T05:00:12;33;31;
59546;PMS5003;45368;55.002;-1.592;2022-11-15T05:02:41;34;32;
59546;PMS5003;45368;55.002;-1.592;2022-11-15T05:05:09;37;31;
59546;PMS5003;45368;55.002;-1.592;2022-11-15T05:07:36;28;26;
59546;PMS5003;45368;55.002;-1.592;2022-11-15T05:10:04;29;28;
59546;PMS5003;45368;55.002;-1.592;2022-11-15T05:12:31;42;33;
59546;PMS5003;45368;55.002;-1.592;2022-11-15T05:14:59;33;32;
59546;PMS5003;45368;55.002;-1.592;2022-11-15T05:17:26;32;29;
59546;PMS5003;45368;55.002;-1.592;2022-11-15T05:19:53;36;33;
59546;PMS5003;45368;55.002;-1.592;2022-11-15T05:22:21;36;33;
59546;PMS5003;45368;55.002;-1.592;2022-11-15T05:24:48;35;34;
59546;PMS5003;45368;55.002;-1.592;2022-11-15T05:27:15;38;33;
59546;PMS5003;45368;55.002;-1.592;2022-11-15T05:29:59;37;34;
59546;PMS5003;45368;55.002;-1.592;2022-11-15T05:32:26;31;29;
59546;PMS5003;45368;55.002;-1.592;2022-11-15T05:34:55;36;31;
59546;PMS5003;45368;55.002;-1.592;2022-11-15T05:37:22;27;25;
59546;PMS5003;45368;55.002;-1.592;2022-11-15T05:39:49;27;25;
59546;PMS5003;45368;55.002;-1.592;2022-11-15T05:42:16;22;22;
59546;PMS5003;45368;55.002;-1.592;2022-11-15T05:44:44;23;23;
59546;PMS5003;45368;55.002;-1.592;2022-11-15T05:47:16;28;24;
59546;PMS5003;45368;55.002;-1.592;2022-11-15T05:49:46;22;19;
59546;PMS5003;45368;55.002;-1.592;2022-11-15T05:52:17;25;22;
59546;PMS5003;45368;55.002;-1.592;2022-11-15T05:54:51;23;23;
59546;PMS5003;45368;55.002;-1.592;2022-11-15T05:57:19;22;21;
59546;PMS5003;45368;55.002;-1.592;2022-11-15T05:59:46;19;18;
59546;PMS5003;45368;55.002;-1.592;2022-11-15T06:02:14;19;18;
59546;PMS5003;45368;55.002;-1.592;2022-11-15T06:04:41;16;16;
59546;PMS5003;45368;55.002;-1.592;2022-11-15T06:07:07;22;19;
59546;PMS5003;45368;55.002;-1.592;2022-11-15T06:09:35;20;18;
59546;PMS5003;45368;55.002;-1.592;2022-11-15T06:12:02;17;16;
59546;PMS5003;45368;55.002;-1.592;2022-11-15T06:14:30;18;17;
59546;PMS5003;45368;55.002;-1.592;2022-11-15T06:16:57;19;17;
59546;PMS5003;45368;55.002;-1.592;2022-11-15T06:19:24;19;18;
59546;PMS5003;45368;55.002;-1.592;2022-11-15T06:21:52;20;19;
59546;PMS5003;45368;55.002;-1.592;2022-11-15T06:24:19;22;21;
59546;PMS5003;45368;55.002;-1.592;2022-11-15T06:26:46;18;16;
59546;PMS5003;45368;55.002;-1.592;2022-11-15T06:29:14;20;16;
59546;PMS5003;45368;55.002;-1.592;2022-11-15T06:31:41;21;19;
59546;PMS5003;45368;55.002;-1.592;2022-11-15T06:34:08;19;17;
59546;PMS5003;45368;55.002;-1.592;2022-11-15T06:36:35;19;17;
59546;PMS5003;45368;55.002;-1.592;2022-11-15T06:39:03;20;17;
59546;PMS5003;45368;55.002;-1.592;2022-11-15T06:41:33;18;16;
59546;PMS5003;45368;55.002;-1.592;2022-11-15T06:44:01;16;16;
59546;PMS5003;45368;55.002;-1.592;2022-11-15T06:46:29;18;16;
59546;PMS5003;45368;55.002;-1.592;2022-11-15T06:48:56;18;15;
59546;PMS5003;45368;55.002;-1.592;2022-11-15T06:51:23;18;16;
59546;PMS5003;45368;55.002;-1.592;2022-11-15T06:53:50;15;15;
59546;PMS5003;45368;55.002;-1.592;2022-11-15T06:56:17;19;17;
59546;PMS5003;45368;55.002;-1.592;2022-11-15T06:58:44;15;14;
59546;PMS5003;45368;55.002;-1.592;2022-11-15T07:01:12;18;18;
59546;PMS5003;45368;55.002;-1.592;2022-11-15T07:03:41;17;16;
59546;PMS5003;45368;55.002;-1.592;2022-11-15T07:06:09;16;15;
59546;PMS5003;45368;55.002;-1.592;2022-11-15T07:08:36;16;14;
59546;PMS5003;45368;55.002;-1.592;2022-11-15T07:11:05;15;11;
59546;PMS5003;45368;55.002;-1.592;2022-11-15T07:13:33;13;10;
59546;PMS5003;45368;55.002;-1.592;2022-11-15T07:16:02;10;10;
59546;PMS5003;45368;55.002;-1.592;2022-11-15T07:18:30;11;11;
59546;PMS5003;45368;55.002;-1.592;2022-11-15T07:21:00;10;10;
59546;PMS5003;45368;55.002;-1.592;2022-11-15T07:23:28;10;8;
59546;PMS5003;45368;55.002;-1.592;2022-11-15T07:25:56;9;8;
59546;PMS5003;45368;55.002;-1.592;2022-11-15T07:28:23;11;10;
59546;PMS5003;45368;55.002;-1.592;2022-11-15T07:30:50;11;8;
59546;PMS5003;45368;55.002;-1.592;2022-11-15T07:33:18;11;10;
59546;PMS5003;45368;55.002;-1.592;2022-11-15T07:35:45;8;8;
59546;PMS5003;45368;55.002;-1.592;2022-11-15T07:38:12;13;8;
59546;PMS5003;45368;55.002;-1.592;2022-11-15T07:40:39;8;6;
59546;PMS5003;45368;55.002;-1.592;2022-11-15T07:43:07;6;5;
59546;PMS5003;45368;55.002;-1.592;2022-11-15T07:45:39;8;7;
59546;PMS5003;45368;55.002;-1.592;2022-11-15T07:48:07;10;10;
59546;PMS5003;45368;55.002;-1.592;2022-11-15T07:50:34;9;8;
59546;PMS5003;45368;55.002;-1.592;2022-11-15T07:53:01;7;7;
59546;PMS5003;45368;55.002;-1.592;2022-11-15T07:55:28;11;8;
59546;PMS5003;45368;55.002;-1.592;2022-11-15T07:58:01;7;5;
59546;PMS5003;45368;55.002;-1.592;2022-11-15T08:00:29;6;5;
59546;PMS5003;45368;55.002;-1.592;2022-11-15T08:03:04;5;4;
59546;PMS5003;45368;55.002;-1.592;2022-11-15T08:05:39;3;3;
59546;PMS5003;45368;55.002;-1.592;2022-11-15T08:08:07;4;3;
59546;PMS5003;45368;55.002;-1.592;2022-11-15T08:10:36;8;5;
59546;PMS5003;45368;55.002;-1.592;2022-11-15T08:13:05;7;4;
59546;PMS5003;45368;55.002;-1.592;2022-11-15T08:15:34;9;6;
59546;PMS5003;45368;55.002;-1.592;2022-11-15T08:18:02;5;5;
59546;PMS5003;45368;55.002;-1.592;2022-11-15T08:20:32;9;7;
59546;PMS5003;45368;55.002;-1.592;2022-11-15T08:23:03;8;8;
59546;PMS5003;45368;55.002;-1.592;2022-11-15T08:25:32;6;5;
59546;PMS5003;45368;55.002;-1.592;2022-11-15T08:28:01;8;5;
59546;PMS5003;45368;55.002;-1.592;2022-11-15T08:30:34;6;5;
59546;PMS5003;45368;55.002;-1.592;2022-11-15T08:33:03;4;4;
59546;PMS5003;45368;55.002;-1.592;2022-11-15T08:35:31;6;6;
59546;PMS5003;45368;55.002;-1.592;2022-11-15T08:37:58;6;6;
59546;PMS5003;45368;55.002;-1.592;2022-11-15T08:40:24;4;4;
59546;PMS5003;45368;55.002;-1.592;2022-11-15T08:42:51;8;7;
59546;PMS5003;45368;55.002;-1.592;2022-11-15T08:45:40;7;5;
59546;PMS5003;45368;55.002;-1.592;2022-11-15T08:48:07;6;5;
59546;PMS5003;45368;55.002;-1.592;2022-11-15T08:50:34;6;4;
59546;PMS5003;45368;55.002;-1.592;2022-11-15T08:53:04;5;4;
59546;PMS5003;45368;55.002;-1.592;2022-11-15T08:55:32;13;9;
59546;PMS5003;45368;55.002;-1.592;2022-11-15T08:58:02;7;6;
59546;PMS5003;45368;55.002;-1.592;2022-11-15T09:00:30;8;7;
59546;PMS5003;45368;55.002;-1.592;2022-11-15T09:02:57;7;7;
59546;PMS5003;45368;55.002;-1.592;2022-11-15T09:05:25;7;7;
59546;PMS5003;45368;55.002;-1.592;2022-11-15T09:07:52;5;4;
59546;PMS5003;45368;55.002;-1.592;2022-11-15T09:10:21;7;7;
59546;PMS5003;45368;55.002;-1.592;2022-11-15T09:12:48;10;10;
59546;PMS5003;45368;55.002;-1.592;2022-11-15T09:15:16;10;9;
59546;PMS5003;45368;55.002;-1.592;2022-11-15T09:17:43;10;9;
59546;PMS5003;45368;55.002;-1.592;2022-11-15T09:20:11;9;9;
59546;PMS5003;45368;55.002;-1.592;2022-11-15T09:22:38;10;8;
59546;PMS5003;45368;55.002;-1.592;2022-11-15T09:25:06;12;11;
59546;PMS5003;45368;55.002;-1.592;2022-11-15T09:27:34;6;5;
59546;PMS5003;45368;55.002;-1.592;2022-11-15T09:30:01;3;3;
59546;PMS5003;45368;55.002;-1.592;2022-11-15T09:32:29;6;5;
59546;PMS5003;45368;55.002;-1.592;2022-11-15T09:34:56;9;8;
59546;PMS5003;45368;55.002;-1.592;2022-11-15T09:37:25;9;8;
59546;PMS5003;45368;55.002;-1.592;2022-11-15T09:39:52;9;8;
59546;PMS5003;45368;55.002;-1.592;2022-11-15T09:42:23;7;6;
59546;PMS5003;45368;55.002;-1.592;2022-11-15T09:45:08;7;6;
59546;PMS5003;45368;55.002;-1.592;2022-11-15T09:47:48;6;6;
59546;PMS5003;45368;55.002;-1.592;2022-11-15T09:50:30;10;7;
59546;PMS5003;45368;55.002;-1.592;2022-11-15T09:53:02;7;6;
59546;PMS5003;45368;55.002;-1.592;2022-11-15T09:55:32;8;6;
59546;PMS5003;45368;55.002;-1.592;2022-11-15T09:58:10;7;6;
59546;PMS5003;45368;55.002;-1.592;2022-11-15T10:00:50;8;6;
59546;PMS5003;45368;55.002;-1.592;2022-11-15T10:03:19;9;6;
59546;PMS5003;45368;55.002;-1.592;2022-11-15T10:05:54;5;5;
59546;PMS5003;45368;55.002;-1.592;2022-11-15T10:08:33;6;6;
59546;PMS5003;45368;55.002;-1.592;2022-11-15T10:11:14;8;7;
59546;PMS5003;45368;55.002;-1.592;2022-11-15T10:13:46;6;6;
59546;PMS5003;45368;55.002;-1.592;2022-11-15T10:16:19;7;7;
59546;PMS5003;45368;55.002;-1.592;2022-11-15T10:18:58;8;8;
59546;PMS5003;45368;55.002;-1.592;2022-11-15T10:21:32;9;7;
59546;PMS5003;45368;55.002;-1.592;2022-11-15T10:24:10;7;6;
59546;PMS5003;45368;55.002;-1.592;2022-11-15T10:26:39;7;6;
59546;PMS5003;45368;55.002;-1.592;2022-11-15T10:29:17;8;7;
59546;PMS5003;45368;55.002;-1.592;2022-11-15T10:31:45;7;6;
59546;PMS5003;45368;55.002;-1.592;2022-11-15T10:34:12;5;5;
59546;PMS5003;45368;55.002;-1.592;2022-11-15T10:36:43;10;9;
59546;PMS5003;45368;55.002;-1.592;2022-11-15T10:39:11;8;7;
59546;PMS5003;45368;55.002;-1.592;2022-11-15T10:41:41;9;9;
59546;PMS5003;45368;55.002;-1.592;2022-11-15T10:44:12;10;7;
59546;PMS5003;45368;55.002;-1.592;2022-11-15T10:46:47;9;8;
59546;PMS5003;45368;55.002;-1.592;2022-11-15T10:49:30;12;9;
59546;PMS5003;45368;55.002;-1.592;2022-11-15T10:51:59;9;9;
59546;PMS5003;45368;55.002;-1.592;2022-11-15T10:54:30;10;9;
59546;PMS5003;45368;55.002;-1.592;2022-11-15T10:57:05;9;8;
59546;PMS5003;45368;55.002;-1.592;2022-11-15T10:59:35;9;7;
59546;PMS5003;45368;55.002;-1.592;2022-11-15T11:02:20;10;9;
59546;PMS5003;45368;55.002;-1.592;2022-11-15T11:04:57;9;9;
59546;PMS5003;45368;55.002;-1.592;2022-11-15T11:07:26;8;8;
59546;PMS5003;45368;55.002;-1.592;2022-11-15T11:09:57;9;8;
59546;PMS5003;45368;55.002;-1.592;2022-11-15T11:12:27;7;7;
59546;PMS5003;45368;55.002;-1.592;2022-11-15T11:14:56;7;6;
59546;PMS5003;45368;55.002;-1.592;2022-11-15T11:17:27;6;6;
59546;PMS5003;45368;55.002;-1.592;2022-11-15T11:20:02;5;5;
59546;PMS5003;45368;55.002;-1.592;2022-11-15T11:22:39;7;6;
59546;PMS5003;45368;55.002;-1.592;2022-11-15T11:25:19;7;6;
59546;PMS5003;45368;55.002;-1.592;2022-11-15T11:27:57;6;5;
59546;PMS5003;45368;55.002;-1.592;2022-11-15T11:30:34;7;6;
59546;PMS5003;45368;55.002;-1.592;2022-11-15T11:33:13;8;6;
59546;PMS5003;45368;55.002;-1.592;2022-11-15T11:35:47;6;6;
59546;PMS5003;45368;55.002;-1.592;2022-11-15T11:38:29;9;6;
59546;PMS5003;45368;55.002;-1.592;2022-11-15T11:41:07;12;11;
59546;PMS5003;45368;55.002;-1.592;2022-11-15T11:43:47;7;7;
59546;PMS5003;45368;55.002;-1.592;2022-11-15T11:46:25;5;5;
59546;PMS5003;45368;55.002;-1.592;2022-11-15T11:49:08;6;5;
59546;PMS5003;45368;55.002;-1.592;2022-11-15T11:51:38;5;5;
59546;PMS5003;45368;55.002;-1.592;2022-11-15T11:54:12;9;7;
59546;PMS5003;45368;55.002;-1.592;2022-11-15T11:56:44;6;5;
59546;PMS5003;45368;55.002;-1.592;2022-11-15T11:59:13;5;5;
59546;PMS5003;45368;55.002;-1.592;2022-11-15T12:01:48;3;3;
59546;PMS5003;45368;55.002;-1.592;2022-11-15T12:04:17;4;3;
59546;PMS5003;45368;55.002;-1.592;2022-11-15T12:06:48;4;3;
59546;PMS5003;45368;55.002;-1.592;2022-11-15T12:09:20;6;5;
59546;PMS5003;45368;55.002;-1.592;2022-11-15T12:11:55;10;7;
59546;PMS5003;45368;55.002;-1.592;2022-11-15T12:14:29;7;6;
59546;PMS5003;45368;55.002;-1.592;2022-11-15T12:16:59;8;8;
59546;PMS5003;45368;55.002;-1.592;2022-11-15T12:19:28;9;7;
59546;PMS5003;45368;55.002;-1.592;2022-11-15T12:21:57;3;3;
59546;PMS5003;45368;55.002;-1.592;2022-11-15T12:24:31;6;6;
59546;PMS5003;45368;55.002;-1.592;2022-11-15T12:27:07;5;3;
59546;PMS5003;45368;55.002;-1.592;2022-11-15T12:29:43;4;4;
59546;PMS5003;45368;55.002;-1.592;2022-11-15T12:32:16;3;3;
59546;PMS5003;45368;55.002;-1.592;2022-11-15T12:34:50;2;2;
59546;PMS5003;45368;55.002;-1.592;2022-11-15T12:37:51;3;3;
59546;PMS5003;45368;55.002;-1.592;2022-11-15T12:40:21;4;3;
59546;PMS5003;45368;55.002;-1.592;2022-11-15T12:42:58;2;2;
59546;PMS5003;45368;55.002;-1.592;2022-11-15T12:45:29;3;3;
59546;PMS5003;45368;55.002;-1.592;2022-11-15T12:48:44;4;4;
59546;PMS5003;45368;55.002;-1.592;2022-11-15T12:51:23;4;3;
59546;PMS5003;45368;55.002;-1.592;2022-11-15T12:55:28;4;3;
59546;PMS5003;45368;55.002;-1.592;2022-11-15T12:58:10;3;3;
59546;PMS5003;45368;55.002;-1.592;2022-11-15T13:00:53;4;3;
59546;PMS5003;45368;55.002;-1.592;2022-11-15T13:03:25;3;3;
59546;PMS5003;45368;55.002;-1.592;2022-11-15T13:05:56;3;3;
59546;PMS5003;45368;55.002;-1.592;2022-11-15T13:08:59;3;3;
59546;PMS5003;45368;55.002;-1.592;2022-11-15T13:11:44;4;3;
59546;PMS5003;45368;55.002;-1.592;2022-11-15T13:14:47;4;4;
59546;PMS5003;45368;55.002;-1.592;2022-11-15T13:17:49;6;5;
59546;PMS5003;45368;55.002;-1.592;2022-11-15T13:20:19;7;5;
59546;PMS5003;45368;55.002;-1.592;2022-11-15T13:22:51;4;4;
59546;PMS5003;45368;55.002;-1.592;2022-11-15T13:25:27;3;3;
59546;PMS5003;45368;55.002;-1.592;2022-11-15T13:28:32;5;4;
59546;PMS5003;45368;55.002;-1.592;2022-11-15T13:31:14;4;3;
59546;PMS5003;45368;55.002;-1.592;2022-11-15T13:33:47;5;4;
59546;PMS5003;45368;55.002;-1.592;2022-11-15T13:36:15;4;4;
59546;PMS5003;45368;55.002;-1.592;2022-11-15T13:38:53;5;5;
59546;PMS5003;45368;55.002;-1.592;2022-11-15T13:41:23;5;5;
59546;PMS5003;45368;55.002;-1.592;2022-11-15T13:43:52;4;3;
59546;PMS5003;45368;55.002;-1.592;2022-11-15T13:46:21;5;5;
59546;PMS5003;45368;55.002;-1.592;2022-11-15T13:48:52;3;3;
59546;PMS5003;45368;55.002;-1.592;2022-11-15T13:51:23;2;2;
59546;PMS5003;45368;55.002;-1.592;2022-11-15T13:53:57;5;4;
59546;PMS5003;45368;55.002;-1.592;2022-11-15T13:56:28;5;4;
59546;PMS5003;45368;55.002;-1.592;2022-11-15T13:58:58;5;4;
59546;PMS5003;45368;55.002;-1.592;2022-11-15T14:01:25;3;3;
59546;PMS5003;45368;55.002;-1.592;2022-11-15T14:03:59;5;5;
59546;PMS5003;45368;55.002;-1.592;2022-11-15T14:06:28;6;5;
59546;PMS5003;45368;55.002;-1.592;2022-11-15T14:09:38;6;5;
59546;PMS5003;45368;55.002;-1.592;2022-11-15T14:12:27;9;8;
59546;PMS5003;45368;55.002;-1.592;2022-11-15T14:14:56;7;6;
59546;PMS5003;45368;55.002;-1.592;2022-11-15T14:17:40;9;8;
59546;PMS5003;45368;55.002;-1.592;2022-11-15T14:20:39;8;5;
59546;PMS5003;45368;55.002;-1.592;2022-11-15T14:23:18;6;4;
59546;PMS5003;45368;55.002;-1.592;2022-11-15T14:25:52;9;7;
59546;PMS5003;45368;55.002;-1.592;2022-11-15T14:28:29;7;7;
59546;PMS5003;45368;55.002;-1.592;2022-11-15T14:30:59;8;7;
59546;PMS5003;45368;55.002;-1.592;2022-11-15T14:33:27;7;6;
59546;PMS5003;45368;55.002;-1.592;2022-11-15T14:35:57;5;5;
59546;PMS5003;45368;55.002;-1.592;2022-11-15T14:38:30;6;5;
59546;PMS5003;45368;55.002;-1.592;2022-11-15T14:40:57;8;6;
59546;PMS5003;45368;55.002;-1.592;2022-11-15T14:43:24;6;6;
59546;PMS5003;45368;55.002;-1.592;2022-11-15T14:45:51;7;7;
59546;PMS5003;45368;55.002;-1.592;2022-11-15T14:48:19;4;4;
59546;PMS5003;45368;55.002;-1.592;2022-11-15T14:50:46;4;4;
59546;PMS5003;45368;55.002;-1.592;2022-11-15T14:53:13;7;7;
59546;PMS5003;45368;55.002;-1.592;2022-11-15T14:55:42;7;5;
59546;PMS5003;45368;55.002;-1.592;2022-11-15T14:58:10;6;6;
59546;PMS5003;45368;55.002;-1.592;2022-11-15T15:00:38;5;5;
59546;PMS5003;45368;55.002;-1.592;2022-11-15T15:03:07;5;4;
59546;PMS5003;45368;55.002;-1.592;2022-11-15T15:05:35;9;7;
59546;PMS5003;45368;55.002;-1.592;2022-11-15T15:08:04;5;5;
59546;PMS5003;45368;55.002;-1.592;2022-11-15T15:10:32;4;4;
59546;PMS5003;45368;55.002;-1.592;2022-11-15T15:13:02;13;12;
59546;PMS5003;45368;55.002;-1.592;2022-11-15T15:15:31;30;25;
59546;PMS5003;45368;55.002;-1.592;2022-11-15T15:18:00;27;25;
59546;PMS5003;45368;55.002;-1.592;2022-11-15T15:20:28;9;9;
59546;PMS5003;45368;55.002;-1.592;2022-11-15T15:22:56;7;7;
59546;PMS5003;45368;55.002;-1.592;2022-11-15T15:25:24;10;10;
59546;PMS5003;45368;55.002;-1.592;2022-11-15T15:27:54;5;4;
59546;PMS5003;45368;55.002;-1.592;2022-11-15T15:30:22;5;2;
59546;PMS5003;45368;55.002;-1.592;2022-11-15T15:32:51;5;5;
59546;PMS5003;45368;55.002;-1.592;2022-11-15T15:35:18;4;4;
59546;PMS5003;45368;55.002;-1.592;2022-11-15T15:37:47;3;3;
59546;PMS5003;45368;55.002;-1.592;2022-11-15T15:40:16;3;3;
59546;PMS5003;45368;55.002;-1.592;2022-11-15T15:42:44;2;1;
59546;PMS5003;45368;55.002;-1.592;2022-11-15T15:45:12;2;2;
59546;PMS5003;45368;55.002;-1.592;2022-11-15T15:47:40;0;0;
59546;PMS5003;45368;55.002;-1.592;2022-11-15T15:50:14;2;2;
59546;PMS5003;45368;55.002;-1.592;2022-11-15T15:52:48;0;0;
59546;PMS5003;45368;55.002;-1.592;2022-11-15T15:55:16;2;2;
59546;PMS5003;45368;55.002;-1.592;2022-11-15T15:57:43;2;1;
59546;PMS5003;45368;55.002;-1.592;2022-11-15T16:00:10;2;2;
59546;PMS5003;45368;55.002;-1.592;2022-11-15T16:02:38;3;2;
59546;PMS5003;45368;55.002;-1.592;2022-11-15T16:05:06;3;3;
59546;PMS5003;45368;55.002;-1.592;2022-11-15T16:07:34;2;1;
59546;PMS5003;45368;55.002;-1.592;2022-11-15T16:10:02;3;3;
59546;PMS5003;45368;55.002;-1.592;2022-11-15T16:12:40;2;2;
59546;PMS5003;45368;55.002;-1.592;2022-11-15T16:15:07;3;3;
59546;PMS5003;45368;55.002;-1.592;2022-11-15T16:17:37;5;5;
59546;PMS5003;45368;55.002;-1.592;2022-11-15T16:20:08;5;4;
59546;PMS5003;45368;55.002;-1.592;2022-11-15T16:22:48;4;4;
59546;PMS5003;45368;55.002;-1.592;2022-11-15T16:25:15;5;5;
59546;PMS5003;45368;55.002;-1.592;2022-11-15T16:27:42;5;5;
59546;PMS5003;45368;55.002;-1.592;2022-11-15T16:30:10;9;8;
59546;PMS5003;45368;55.002;-1.592;2022-11-15T16:32:40;6;5;
59546;PMS5003;45368;55.002;-1.592;2022-11-15T16:35:09;6;5;
59546;PMS5003;45368;55.002;-1.592;2022-11-15T16:37:37;9;7;
59546;PMS5003;45368;55.002;-1.592;2022-11-15T16:40:07;5;4;
59546;PMS5003;45368;55.002;-1.592;2022-11-15T16:42:44;2;2;
59546;PMS5003;45368;55.002;-1.592;2022-11-15T16:45:11;4;4;
59546;PMS5003;45368;55.002;-1.592;2022-11-15T16:47:38;6;6;